sensor_id;sensor_type;location;lat;lon;timestamp;P1;durP1;ratioP1;P2;durP2;ratioP2
58950;SDS011;44730;53.158;6.398;2023-02-08T00:01:07;31.73;;;19.58;;
58950;SDS011;44730;53.158;6.398;2023-02-08T00:03:33;28.00;;;18.27;;
58950;SDS011;44730;53.158;6.398;2023-02-08T00:05:59;32.38;;;18.55;;
58950;SDS011;44730;53.158;6.398;2023-02-08T00:08:25;27.08;;;18.58;;
58950;SDS011;44730;53.158;6.398;2023-02-08T00:10:51;32.45;;;18.23;;
58950;SDS011;44730;53.158;6.398;2023-02-08T00:13:17;29.02;;;18.77;;
58950;SDS011;44730;53.158;6.398;2023-02-08T00:15:43;32.97;;;18.13;;
58950;SDS011;44730;53.158;6.398;2023-02-08T00:18:10;30.17;;;18.45;;
58950;SDS011;44730;53.158;6.398;2023-02-08T00:20:40;29.70;;;17.45;;
58950;SDS011;44730;53.158;6.398;2023-02-08T00:23:06;30.17;;;18.63;;
58950;SDS011;44730;53.158;6.398;2023-02-08T00:25:32;26.17;;;17.45;;
58950;SDS011;44730;53.158;6.398;2023-02-08T00:27:58;28.98;;;17.38;;
58950;SDS011;44730;53.158;6.398;2023-02-08T00:30:24;30.30;;;17.35;;
58950;SDS011;44730;53.158;6.398;2023-02-08T00:32:50;28.30;;;18.60;;
58950;SDS011;44730;53.158;6.398;2023-02-08T00:35:16;28.40;;;17.95;;
58950;SDS011;44730;53.158;6.398;2023-02-08T00:37:41;26.50;;;17.25;;
58950;SDS011;44730;53.158;6.398;2023-02-08T00:40:07;25.13;;;16.83;;
58950;SDS011;44730;53.158;6.398;2023-02-08T00:42:34;26.95;;;17.92;;
58950;SDS011;44730;53.158;6.398;2023-02-08T00:44:59;27.92;;;17.92;;
58950;SDS011;44730;53.158;6.398;2023-02-08T00:47:25;27.20;;;16.38;;
58950;SDS011;44730;53.158;6.398;2023-02-08T00:49:51;26.05;;;17.55;;
58950;SDS011;44730;53.158;6.398;2023-02-08T00:52:17;26.40;;;17.85;;
58950;SDS011;44730;53.158;6.398;2023-02-08T00:54:43;27.20;;;16.85;;
58950;SDS011;44730;53.158;6.398;2023-02-08T00:57:09;27.13;;;16.88;;
58950;SDS011;44730;53.158;6.398;2023-02-08T00:59:34;26.27;;;16.83;;
58950;SDS011;44730;53.158;6.398;2023-02-08T01:02:00;26.60;;;17.17;;
58950;SDS011;44730;53.158;6.398;2023-02-08T01:04:26;23.02;;;15.77;;
58950;SDS011;44730;53.158;6.398;2023-02-08T01:06:51;24.77;;;16.52;;
58950;SDS011;44730;53.158;6.398;2023-02-08T01:09:17;26.00;;;17.45;;
58950;SDS011;44730;53.158;6.398;2023-02-08T01:11:43;26.42;;;17.08;;
58950;SDS011;44730;53.158;6.398;2023-02-08T01:14:08;26.70;;;17.08;;
58950;SDS011;44730;53.158;6.398;2023-02-08T01:16:34;26.73;;;16.70;;
58950;SDS011;44730;53.158;6.398;2023-02-08T01:19:01;26.88;;;17.27;;
58950;SDS011;44730;53.158;6.398;2023-02-08T01:21:29;24.65;;;16.83;;
58950;SDS011;44730;53.158;6.398;2023-02-08T01:23:56;26.63;;;16.92;;
58950;SDS011;44730;53.158;6.398;2023-02-08T01:26:22;23.30;;;16.83;;
58950;SDS011;44730;53.158;6.398;2023-02-08T01:28:50;25.98;;;16.85;;
58950;SDS011;44730;53.158;6.398;2023-02-08T01:31:21;27.23;;;17.20;;
58950;SDS011;44730;53.158;6.398;2023-02-08T01:33:55;24.88;;;17.20;;
58950;SDS011;44730;53.158;6.398;2023-02-08T01:36:22;26.60;;;16.88;;
58950;SDS011;44730;53.158;6.398;2023-02-08T01:38:48;29.38;;;17.70;;
58950;SDS011;44730;53.158;6.398;2023-02-08T01:41:21;26.65;;;17.17;;
58950;SDS011;44730;53.158;6.398;2023-02-08T01:46:37;25.23;;;17.73;;
58950;SDS011;44730;53.158;6.398;2023-02-08T01:51:54;25.58;;;16.33;;
58950;SDS011;44730;53.158;6.398;2023-02-08T01:54:35;23.65;;;16.65;;
58950;SDS011;44730;53.158;6.398;2023-02-08T01:57:04;24.52;;;15.63;;
58950;SDS011;44730;53.158;6.398;2023-02-08T01:59:33;24.52;;;16.33;;
58950;SDS011;44730;53.158;6.398;2023-02-08T02:02:03;24.25;;;16.08;;
58950;SDS011;44730;53.158;6.398;2023-02-08T02:04:31;24.23;;;15.52;;
58950;SDS011;44730;53.158;6.398;2023-02-08T02:06:59;25.25;;;16.00;;
58950;SDS011;44730;53.158;6.398;2023-02-08T02:12:15;23.48;;;15.35;;
58950;SDS011;44730;53.158;6.398;2023-02-08T02:14:42;21.60;;;15.10;;
58950;SDS011;44730;53.158;6.398;2023-02-08T02:17:09;25.40;;;16.52;;
58950;SDS011;44730;53.158;6.398;2023-02-08T02:35:45;29.50;;;18.05;;
58950;SDS011;44730;53.158;6.398;2023-02-08T02:38:59;28.55;;;17.90;;
58950;SDS011;44730;53.158;6.398;2023-02-08T02:41:08;25.85;;;17.08;;
58950;SDS011;44730;53.158;6.398;2023-02-08T02:44:21;27.30;;;17.58;;
58950;SDS011;44730;53.158;6.398;2023-02-08T02:47:06;26.85;;;18.20;;
58950;SDS011;44730;53.158;6.398;2023-02-08T02:49:49;24.60;;;17.10;;
58950;SDS011;44730;53.158;6.398;2023-02-08T02:52:28;26.63;;;17.65;;
58950;SDS011;44730;53.158;6.398;2023-02-08T02:55:03;26.70;;;17.20;;
58950;SDS011;44730;53.158;6.398;2023-02-08T02:57:32;25.55;;;17.02;;
58950;SDS011;44730;53.158;6.398;2023-02-08T03:00:00;27.38;;;17.77;;
58950;SDS011;44730;53.158;6.398;2023-02-08T03:02:32;27.65;;;17.38;;
58950;SDS011;44730;53.158;6.398;2023-02-08T03:04:58;28.13;;;16.52;;
58950;SDS011;44730;53.158;6.398;2023-02-08T03:13:24;25.15;;;15.85;;
58950;SDS011;44730;53.158;6.398;2023-02-08T03:25:02;28.08;;;17.73;;
58950;SDS011;44730;53.158;6.398;2023-02-08T03:27:45;24.00;;;15.48;;
58950;SDS011;44730;53.158;6.398;2023-02-08T03:30:33;24.48;;;15.52;;
58950;SDS011;44730;53.158;6.398;2023-02-08T03:36:33;24.80;;;16.15;;
58950;SDS011;44730;53.158;6.398;2023-02-08T03:39:27;25.35;;;15.77;;
58950;SDS011;44730;53.158;6.398;2023-02-08T03:41:58;25.38;;;15.93;;
58950;SDS011;44730;53.158;6.398;2023-02-08T03:44:36;28.13;;;15.55;;
58950;SDS011;44730;53.158;6.398;2023-02-08T03:47:11;23.20;;;15.57;;
58950;SDS011;44730;53.158;6.398;2023-02-08T03:49:40;25.23;;;15.05;;
58950;SDS011;44730;53.158;6.398;2023-02-08T03:52:09;22.55;;;14.95;;
58950;SDS011;44730;53.158;6.398;2023-02-08T03:54:37;22.55;;;15.18;;
58950;SDS011;44730;53.158;6.398;2023-02-08T03:57:23;24.73;;;15.65;;
58950;SDS011;44730;53.158;6.398;2023-02-08T03:59:57;22.35;;;14.48;;
58950;SDS011;44730;53.158;6.398;2023-02-08T04:02:28;22.17;;;15.00;;
58950;SDS011;44730;53.158;6.398;2023-02-08T04:04:58;28.13;;;16.98;;
58950;SDS011;44730;53.158;6.398;2023-02-08T04:07:25;23.67;;;16.30;;
58950;SDS011;44730;53.158;6.398;2023-02-08T04:09:51;24.65;;;16.02;;
58950;SDS011;44730;53.158;6.398;2023-02-08T04:12:17;23.67;;;15.93;;
58950;SDS011;44730;53.158;6.398;2023-02-08T04:14:43;24.33;;;17.40;;
58950;SDS011;44730;53.158;6.398;2023-02-08T04:17:09;25.88;;;17.15;;
58950;SDS011;44730;53.158;6.398;2023-02-08T04:19:34;22.80;;;15.35;;
58950;SDS011;44730;53.158;6.398;2023-02-08T04:22:00;25.88;;;15.85;;
58950;SDS011;44730;53.158;6.398;2023-02-08T04:24:26;22.95;;;15.10;;
58950;SDS011;44730;53.158;6.398;2023-02-08T04:26:51;21.58;;;15.23;;
58950;SDS011;44730;53.158;6.398;2023-02-08T04:29:17;25.25;;;16.00;;
58950;SDS011;44730;53.158;6.398;2023-02-08T04:31:43;25.05;;;15.68;;
58950;SDS011;44730;53.158;6.398;2023-02-08T04:34:08;26.33;;;15.98;;
58950;SDS011;44730;53.158;6.398;2023-02-08T04:36:34;28.02;;;15.90;;
58950;SDS011;44730;53.158;6.398;2023-02-08T04:39:00;24.55;;;15.23;;
58950;SDS011;44730;53.158;6.398;2023-02-08T04:41:26;22.45;;;15.32;;
58950;SDS011;44730;53.158;6.398;2023-02-08T04:43:51;24.95;;;15.05;;
58950;SDS011;44730;53.158;6.398;2023-02-08T04:46:17;22.98;;;14.90;;
58950;SDS011;44730;53.158;6.398;2023-02-08T04:48:43;25.15;;;15.85;;
58950;SDS011;44730;53.158;6.398;2023-02-08T04:51:08;27.85;;;16.40;;
58950;SDS011;44730;53.158;6.398;2023-02-08T04:53:34;22.65;;;14.88;;
58950;SDS011;44730;53.158;6.398;2023-02-08T04:56:00;20.10;;;14.27;;
58950;SDS011;44730;53.158;6.398;2023-02-08T04:58:26;25.95;;;15.52;;
58950;SDS011;44730;53.158;6.398;2023-02-08T05:00:51;22.50;;;14.45;;
58950;SDS011;44730;53.158;6.398;2023-02-08T05:03:17;23.95;;;15.63;;
58950;SDS011;44730;53.158;6.398;2023-02-08T05:05:43;22.60;;;15.65;;
58950;SDS011;44730;53.158;6.398;2023-02-08T05:08:09;28.33;;;15.50;;
58950;SDS011;44730;53.158;6.398;2023-02-08T05:10:35;23.17;;;15.43;;
58950;SDS011;44730;53.158;6.398;2023-02-08T05:13:00;26.60;;;16.45;;
58950;SDS011;44730;53.158;6.398;2023-02-08T05:15:26;26.70;;;16.10;;
58950;SDS011;44730;53.158;6.398;2023-02-08T05:17:52;23.85;;;15.95;;
58950;SDS011;44730;53.158;6.398;2023-02-08T05:20:17;22.05;;;14.90;;
58950;SDS011;44730;53.158;6.398;2023-02-08T05:22:43;23.00;;;15.77;;
58950;SDS011;44730;53.158;6.398;2023-02-08T05:25:09;26.55;;;15.15;;
58950;SDS011;44730;53.158;6.398;2023-02-08T05:27:35;23.80;;;15.80;;
58950;SDS011;44730;53.158;6.398;2023-02-08T05:30:00;24.67;;;15.38;;
58950;SDS011;44730;53.158;6.398;2023-02-08T05:32:26;23.48;;;16.00;;
58950;SDS011;44730;53.158;6.398;2023-02-08T05:34:52;24.95;;;16.88;;
58950;SDS011;44730;53.158;6.398;2023-02-08T05:37:18;23.23;;;15.60;;
58950;SDS011;44730;53.158;6.398;2023-02-08T05:39:44;26.27;;;15.93;;
58950;SDS011;44730;53.158;6.398;2023-02-08T05:42:09;23.17;;;15.98;;
58950;SDS011;44730;53.158;6.398;2023-02-08T05:44:35;23.23;;;15.85;;
58950;SDS011;44730;53.158;6.398;2023-02-08T05:47:00;26.73;;;17.25;;
58950;SDS011;44730;53.158;6.398;2023-02-08T05:49:28;24.90;;;16.98;;
58950;SDS011;44730;53.158;6.398;2023-02-08T05:51:54;24.13;;;16.17;;
58950;SDS011;44730;53.158;6.398;2023-02-08T05:54:19;27.08;;;17.25;;
58950;SDS011;44730;53.158;6.398;2023-02-08T05:56:45;24.55;;;16.25;;
58950;SDS011;44730;53.158;6.398;2023-02-08T05:59:11;23.95;;;16.30;;
58950;SDS011;44730;53.158;6.398;2023-02-08T06:01:37;23.73;;;16.50;;
58950;SDS011;44730;53.158;6.398;2023-02-08T06:04:02;25.92;;;15.95;;
58950;SDS011;44730;53.158;6.398;2023-02-08T06:06:28;27.77;;;16.35;;
58950;SDS011;44730;53.158;6.398;2023-02-08T06:08:54;26.90;;;17.45;;
58950;SDS011;44730;53.158;6.398;2023-02-08T06:11:20;23.90;;;16.60;;
58950;SDS011;44730;53.158;6.398;2023-02-08T06:13:46;26.60;;;18.15;;
58950;SDS011;44730;53.158;6.398;2023-02-08T06:16:12;28.17;;;17.58;;
58950;SDS011;44730;53.158;6.398;2023-02-08T06:18:38;30.80;;;17.63;;
58950;SDS011;44730;53.158;6.398;2023-02-08T06:21:03;31.83;;;19.17;;
58950;SDS011;44730;53.158;6.398;2023-02-08T06:23:29;29.38;;;18.02;;
58950;SDS011;44730;53.158;6.398;2023-02-08T06:25:55;27.80;;;18.52;;
58950;SDS011;44730;53.158;6.398;2023-02-08T06:28:21;28.63;;;17.33;;
58950;SDS011;44730;53.158;6.398;2023-02-08T06:30:47;29.65;;;18.13;;
58950;SDS011;44730;53.158;6.398;2023-02-08T06:33:14;26.73;;;17.90;;
58950;SDS011;44730;53.158;6.398;2023-02-08T06:35:43;27.90;;;17.08;;
58950;SDS011;44730;53.158;6.398;2023-02-08T06:38:26;26.10;;;17.85;;
58950;SDS011;44730;53.158;6.398;2023-02-08T06:40:52;31.15;;;18.40;;
58950;SDS011;44730;53.158;6.398;2023-02-08T06:43:17;29.65;;;17.85;;
58950;SDS011;44730;53.158;6.398;2023-02-08T06:45:44;28.98;;;17.60;;
58950;SDS011;44730;53.158;6.398;2023-02-08T06:48:11;28.23;;;17.48;;
58950;SDS011;44730;53.158;6.398;2023-02-08T06:50:37;28.90;;;18.20;;
58950;SDS011;44730;53.158;6.398;2023-02-08T06:53:03;30.05;;;17.88;;
58950;SDS011;44730;53.158;6.398;2023-02-08T06:55:29;25.55;;;17.35;;
58950;SDS011;44730;53.158;6.398;2023-02-08T06:57:55;33.13;;;18.40;;
58950;SDS011;44730;53.158;6.398;2023-02-08T07:00:21;29.05;;;16.58;;
58950;SDS011;44730;53.158;6.398;2023-02-08T07:02:47;25.80;;;17.80;;
58950;SDS011;44730;53.158;6.398;2023-02-08T07:05:13;26.58;;;15.50;;
58950;SDS011;44730;53.158;6.398;2023-02-08T07:07:38;26.30;;;17.00;;
58950;SDS011;44730;53.158;6.398;2023-02-08T07:10:05;26.02;;;16.88;;
58950;SDS011;44730;53.158;6.398;2023-02-08T07:12:34;27.02;;;17.63;;
58950;SDS011;44730;53.158;6.398;2023-02-08T07:15:01;25.65;;;16.77;;
58950;SDS011;44730;53.158;6.398;2023-02-08T07:17:27;25.20;;;16.35;;
58950;SDS011;44730;53.158;6.398;2023-02-08T07:19:52;27.75;;;16.85;;
58950;SDS011;44730;53.158;6.398;2023-02-08T07:22:18;23.83;;;16.52;;
58950;SDS011;44730;53.158;6.398;2023-02-08T07:24:44;26.67;;;16.45;;
58950;SDS011;44730;53.158;6.398;2023-02-08T07:27:10;26.40;;;17.90;;
58950;SDS011;44730;53.158;6.398;2023-02-08T07:29:36;29.85;;;18.25;;
58950;SDS011;44730;53.158;6.398;2023-02-08T07:32:03;30.40;;;19.30;;
58950;SDS011;44730;53.158;6.398;2023-02-08T07:34:30;28.90;;;19.35;;
58950;SDS011;44730;53.158;6.398;2023-02-08T07:36:57;30.73;;;19.23;;
58950;SDS011;44730;53.158;6.398;2023-02-08T07:39:23;28.20;;;18.58;;
58950;SDS011;44730;53.158;6.398;2023-02-08T07:41:49;29.08;;;17.73;;
58950;SDS011;44730;53.158;6.398;2023-02-08T07:44:15;26.83;;;17.55;;
58950;SDS011;44730;53.158;6.398;2023-02-08T07:46:41;29.23;;;18.30;;
58950;SDS011;44730;53.158;6.398;2023-02-08T07:49:07;30.77;;;18.30;;
58950;SDS011;44730;53.158;6.398;2023-02-08T07:51:33;24.75;;;17.45;;
58950;SDS011;44730;53.158;6.398;2023-02-08T07:53:59;29.63;;;17.92;;
58950;SDS011;44730;53.158;6.398;2023-02-08T07:56:24;28.65;;;17.17;;
58950;SDS011;44730;53.158;6.398;2023-02-08T07:58:50;24.58;;;16.45;;
58950;SDS011;44730;53.158;6.398;2023-02-08T08:01:16;28.27;;;17.73;;
58950;SDS011;44730;53.158;6.398;2023-02-08T08:03:42;27.13;;;17.10;;
58950;SDS011;44730;53.158;6.398;2023-02-08T08:06:07;24.55;;;16.17;;
58950;SDS011;44730;53.158;6.398;2023-02-08T08:08:33;29.08;;;17.48;;
58950;SDS011;44730;53.158;6.398;2023-02-08T08:10:59;31.00;;;17.20;;
58950;SDS011;44730;53.158;6.398;2023-02-08T08:13:25;26.13;;;16.65;;
58950;SDS011;44730;53.158;6.398;2023-02-08T08:15:51;27.02;;;16.40;;
58950;SDS011;44730;53.158;6.398;2023-02-08T08:18:16;26.08;;;17.13;;
58950;SDS011;44730;53.158;6.398;2023-02-08T08:20:42;26.05;;;16.88;;
58950;SDS011;44730;53.158;6.398;2023-02-08T08:23:08;28.10;;;16.45;;
58950;SDS011;44730;53.158;6.398;2023-02-08T08:25:33;28.80;;;16.63;;
58950;SDS011;44730;53.158;6.398;2023-02-08T08:28:00;23.48;;;15.50;;
58950;SDS011;44730;53.158;6.398;2023-02-08T08:30:26;25.20;;;16.23;;
58950;SDS011;44730;53.158;6.398;2023-02-08T08:32:52;27.92;;;16.95;;
58950;SDS011;44730;53.158;6.398;2023-02-08T08:35:18;31.95;;;16.42;;
58950;SDS011;44730;53.158;6.398;2023-02-08T08:37:43;23.20;;;15.45;;
58950;SDS011;44730;53.158;6.398;2023-02-08T08:40:09;25.30;;;15.07;;
58950;SDS011;44730;53.158;6.398;2023-02-08T08:42:35;25.25;;;16.52;;
58950;SDS011;44730;53.158;6.398;2023-02-08T08:45:04;24.55;;;15.90;;
58950;SDS011;44730;53.158;6.398;2023-02-08T08:47:30;22.33;;;15.57;;
58950;SDS011;44730;53.158;6.398;2023-02-08T08:49:56;24.75;;;16.00;;
58950;SDS011;44730;53.158;6.398;2023-02-08T08:52:22;25.38;;;15.65;;
58950;SDS011;44730;53.158;6.398;2023-02-08T08:54:47;23.60;;;15.38;;
58950;SDS011;44730;53.158;6.398;2023-02-08T08:57:14;23.83;;;14.40;;
58950;SDS011;44730;53.158;6.398;2023-02-08T08:59:40;25.23;;;14.48;;
58950;SDS011;44730;53.158;6.398;2023-02-08T09:02:05;19.73;;;13.25;;
58950;SDS011;44730;53.158;6.398;2023-02-08T09:04:31;19.48;;;12.60;;
58950;SDS011;44730;53.158;6.398;2023-02-08T09:06:57;20.38;;;12.30;;
58950;SDS011;44730;53.158;6.398;2023-02-08T09:09:23;18.92;;;12.57;;
58950;SDS011;44730;53.158;6.398;2023-02-08T09:11:49;18.75;;;13.82;;
58950;SDS011;44730;53.158;6.398;2023-02-08T09:14:14;16.67;;;11.40;;
58950;SDS011;44730;53.158;6.398;2023-02-08T09:16:41;17.08;;;12.30;;
58950;SDS011;44730;53.158;6.398;2023-02-08T09:19:07;18.00;;;12.35;;
58950;SDS011;44730;53.158;6.398;2023-02-08T09:21:35;14.77;;;11.50;;
58950;SDS011;44730;53.158;6.398;2023-02-08T09:24:01;16.73;;;12.18;;
58950;SDS011;44730;53.158;6.398;2023-02-08T09:26:27;16.83;;;12.00;;
58950;SDS011;44730;53.158;6.398;2023-02-08T09:28:53;14.23;;;11.77;;
58950;SDS011;44730;53.158;6.398;2023-02-08T09:31:22;14.45;;;11.50;;
58950;SDS011;44730;53.158;6.398;2023-02-08T09:33:50;14.88;;;11.50;;
58950;SDS011;44730;53.158;6.398;2023-02-08T09:36:18;15.52;;;11.75;;
58950;SDS011;44730;53.158;6.398;2023-02-08T09:38:44;13.90;;;11.68;;
58950;SDS011;44730;53.158;6.398;2023-02-08T09:46:44;12.15;;;10.80;;
58950;SDS011;44730;53.158;6.398;2023-02-08T09:50:24;13.30;;;11.70;;
58950;SDS011;44730;53.158;6.398;2023-02-08T09:52:29;14.85;;;11.80;;
58950;SDS011;44730;53.158;6.398;2023-02-08T09:55:11;14.20;;;11.93;;
58950;SDS011;44730;53.158;6.398;2023-02-08T09:57:39;14.27;;;11.85;;
58950;SDS011;44730;53.158;6.398;2023-02-08T10:00:11;12.70;;;10.93;;
58950;SDS011;44730;53.158;6.398;2023-02-08T10:02:43;15.80;;;11.90;;
58950;SDS011;44730;53.158;6.398;2023-02-08T10:05:12;13.60;;;11.43;;
58950;SDS011;44730;53.158;6.398;2023-02-08T10:07:40;14.25;;;11.10;;
58950;SDS011;44730;53.158;6.398;2023-02-08T10:10:11;14.52;;;12.18;;
58950;SDS011;44730;53.158;6.398;2023-02-08T10:15:13;12.02;;;10.60;;
58950;SDS011;44730;53.158;6.398;2023-02-08T10:26:59;14.23;;;10.02;;
58950;SDS011;44730;53.158;6.398;2023-02-08T10:29:51;13.63;;;10.52;;
58950;SDS011;44730;53.158;6.398;2023-02-08T10:35:30;13.48;;;9.55;;
58950;SDS011;44730;53.158;6.398;2023-02-08T10:40:52;12.05;;;9.27;;
58950;SDS011;44730;53.158;6.398;2023-02-08T10:46:08;10.52;;;8.15;;
58950;SDS011;44730;53.158;6.398;2023-02-08T10:51:22;11.52;;;7.95;;
58950;SDS011;44730;53.158;6.398;2023-02-08T10:53:48;11.40;;;8.43;;
58950;SDS011;44730;53.158;6.398;2023-02-08T11:02:19;12.77;;;8.07;;
58950;SDS011;44730;53.158;6.398;2023-02-08T11:04:57;11.70;;;7.68;;
58950;SDS011;44730;53.158;6.398;2023-02-08T11:07:28;11.25;;;7.65;;
58950;SDS011;44730;53.158;6.398;2023-02-08T11:12:52;10.27;;;6.95;;
58950;SDS011;44730;53.158;6.398;2023-02-08T11:15:29;9.25;;;6.72;;
58950;SDS011;44730;53.158;6.398;2023-02-08T11:18:04;10.32;;;7.53;;
58950;SDS011;44730;53.158;6.398;2023-02-08T11:20:35;10.32;;;6.57;;
58950;SDS011;44730;53.158;6.398;2023-02-08T11:23:25;9.57;;;7.07;;
58950;SDS011;44730;53.158;6.398;2023-02-08T11:25:54;9.23;;;6.13;;
58950;SDS011;44730;53.158;6.398;2023-02-08T11:29:01;10.98;;;6.93;;
58950;SDS011;44730;53.158;6.398;2023-02-08T11:31:30;8.73;;;6.95;;
58950;SDS011;44730;53.158;6.398;2023-02-08T11:34:03;9.38;;;6.45;;
58950;SDS011;44730;53.158;6.398;2023-02-08T11:36:31;8.70;;;6.35;;
58950;SDS011;44730;53.158;6.398;2023-02-08T11:39:02;8.30;;;6.43;;
58950;SDS011;44730;53.158;6.398;2023-02-08T11:41:45;9.52;;;6.03;;
58950;SDS011;44730;53.158;6.398;2023-02-08T11:44:16;9.88;;;6.40;;
58950;SDS011;44730;53.158;6.398;2023-02-08T11:46:50;8.77;;;6.55;;
58950;SDS011;44730;53.158;6.398;2023-02-08T11:49:21;7.65;;;6.03;;
58950;SDS011;44730;53.158;6.398;2023-02-08T11:51:49;8.98;;;5.97;;
58950;SDS011;44730;53.158;6.398;2023-02-08T11:54:36;9.25;;;6.13;;
58950;SDS011;44730;53.158;6.398;2023-02-08T11:57:13;8.02;;;5.78;;
58950;SDS011;44730;53.158;6.398;2023-02-08T11:59:44;10.57;;;6.68;;
58950;SDS011;44730;53.158;6.398;2023-02-08T12:02:57;10.32;;;6.43;;
58950;SDS011;44730;53.158;6.398;2023-02-08T12:05:01;9.63;;;5.85;;
58950;SDS011;44730;53.158;6.398;2023-02-08T12:10:07;9.40;;;6.90;;
58950;SDS011;44730;53.158;6.398;2023-02-08T12:13:00;9.07;;;6.55;;
58950;SDS011;44730;53.158;6.398;2023-02-08T12:20:56;9.82;;;6.85;;
58950;SDS011;44730;53.158;6.398;2023-02-08T12:26:49;10.57;;;6.00;;
58950;SDS011;44730;53.158;6.398;2023-02-08T12:29:47;10.40;;;6.60;;
58950;SDS011;44730;53.158;6.398;2023-02-08T12:32:29;7.95;;;6.18;;
58950;SDS011;44730;53.158;6.398;2023-02-08T12:41:49;8.93;;;6.10;;
58950;SDS011;44730;53.158;6.398;2023-02-08T12:44:31;8.13;;;5.75;;
58950;SDS011;44730;53.158;6.398;2023-02-08T12:49:52;10.30;;;6.35;;
58950;SDS011;44730;53.158;6.398;2023-02-08T12:52:41;9.07;;;6.18;;
58950;SDS011;44730;53.158;6.398;2023-02-08T12:55:16;9.18;;;6.53;;
58950;SDS011;44730;53.158;6.398;2023-02-08T12:57:56;8.05;;;5.78;;
58950;SDS011;44730;53.158;6.398;2023-02-08T13:03:03;8.10;;;5.53;;
58950;SDS011;44730;53.158;6.398;2023-02-08T13:05:43;7.10;;;5.25;;
58950;SDS011;44730;53.158;6.398;2023-02-08T13:11:18;7.20;;;5.28;;
58950;SDS011;44730;53.158;6.398;2023-02-08T13:14:13;8.35;;;5.57;;
58950;SDS011;44730;53.158;6.398;2023-02-08T13:16:48;6.75;;;4.72;;
58950;SDS011;44730;53.158;6.398;2023-02-08T13:22:06;6.38;;;5.18;;
58950;SDS011;44730;53.158;6.398;2023-02-08T13:24:38;6.35;;;4.78;;
58950;SDS011;44730;53.158;6.398;2023-02-08T13:27:06;6.57;;;5.13;;
58950;SDS011;44730;53.158;6.398;2023-02-08T13:29:39;7.47;;;5.38;;
58950;SDS011;44730;53.158;6.398;2023-02-08T13:32:06;7.25;;;5.20;;
58950;SDS011;44730;53.158;6.398;2023-02-08T13:34:52;7.15;;;5.50;;
58950;SDS011;44730;53.158;6.398;2023-02-08T13:37:22;7.72;;;5.30;;
58950;SDS011;44730;53.158;6.398;2023-02-08T13:39:58;7.60;;;5.50;;
58950;SDS011;44730;53.158;6.398;2023-02-08T13:42:36;5.60;;;4.50;;
58950;SDS011;44730;53.158;6.398;2023-02-08T13:45:08;6.03;;;4.72;;
58950;SDS011;44730;53.158;6.398;2023-02-08T13:47:47;7.88;;;5.43;;
58950;SDS011;44730;53.158;6.398;2023-02-08T13:53:04;5.88;;;4.50;;
58950;SDS011;44730;53.158;6.398;2023-02-08T14:00:35;6.20;;;4.57;;
58950;SDS011;44730;53.158;6.398;2023-02-08T14:03:02;7.72;;;4.60;;
58950;SDS011;44730;53.158;6.398;2023-02-08T14:05:50;5.85;;;4.25;;
58950;SDS011;44730;53.158;6.398;2023-02-08T14:13:45;6.93;;;4.88;;
58950;SDS011;44730;53.158;6.398;2023-02-08T14:16:27;7.43;;;4.45;;
58950;SDS011;44730;53.158;6.398;2023-02-08T14:27:04;5.95;;;4.32;;
58950;SDS011;44730;53.158;6.398;2023-02-08T14:29:32;6.22;;;4.68;;
58950;SDS011;44730;53.158;6.398;2023-02-08T14:31:58;9.43;;;4.50;;
58950;SDS011;44730;53.158;6.398;2023-02-08T14:34:29;6.65;;;4.32;;
58950;SDS011;44730;53.158;6.398;2023-02-08T14:36:59;6.05;;;4.53;;
58950;SDS011;44730;53.158;6.398;2023-02-08T14:39:45;5.95;;;4.45;;
58950;SDS011;44730;53.158;6.398;2023-02-08T14:42:15;7.20;;;4.68;;
58950;SDS011;44730;53.158;6.398;2023-02-08T14:53:37;6.47;;;4.40;;
58950;SDS011;44730;53.158;6.398;2023-02-08T14:58:50;8.10;;;5.00;;
58950;SDS011;44730;53.158;6.398;2023-02-08T15:03:53;6.63;;;4.38;;
58950;SDS011;44730;53.158;6.398;2023-02-08T15:09:01;6.35;;;3.95;;
58950;SDS011;44730;53.158;6.398;2023-02-08T15:11:46;6.47;;;4.40;;
58950;SDS011;44730;53.158;6.398;2023-02-08T15:14:33;5.82;;;4.00;;
58950;SDS011;44730;53.158;6.398;2023-02-08T15:17:00;6.43;;;4.20;;
58950;SDS011;44730;53.158;6.398;2023-02-08T15:21:54;5.30;;;3.78;;
58950;SDS011;44730;53.158;6.398;2023-02-08T15:24:23;6.22;;;3.97;;
58950;SDS011;44730;53.158;6.398;2023-02-08T15:26:54;6.05;;;4.30;;
58950;SDS011;44730;53.158;6.398;2023-02-08T15:29:28;6.10;;;3.80;;
58950;SDS011;44730;53.158;6.398;2023-02-08T15:31:54;5.60;;;3.67;;
58950;SDS011;44730;53.158;6.398;2023-02-08T15:34:24;5.82;;;4.45;;
58950;SDS011;44730;53.158;6.398;2023-02-08T15:36:51;6.40;;;3.95;;
58950;SDS011;44730;53.158;6.398;2023-02-08T15:39:32;5.97;;;4.18;;
58950;SDS011;44730;53.158;6.398;2023-02-08T15:42:02;6.03;;;4.05;;
58950;SDS011;44730;53.158;6.398;2023-02-08T15:44:30;7.13;;;3.95;;
58950;SDS011;44730;53.158;6.398;2023-02-08T15:46:58;6.32;;;3.60;;
58950;SDS011;44730;53.158;6.398;2023-02-08T15:49:30;5.85;;;4.15;;
58950;SDS011;44730;53.158;6.398;2023-02-08T15:52:00;5.80;;;3.67;;
58950;SDS011;44730;53.158;6.398;2023-02-08T15:54:28;4.93;;;3.45;;
58950;SDS011;44730;53.158;6.398;2023-02-08T15:59:23;5.80;;;3.50;;
58950;SDS011;44730;53.158;6.398;2023-02-08T16:01:52;5.63;;;3.38;;
58950;SDS011;44730;53.158;6.398;2023-02-08T16:04:19;5.45;;;3.00;;
58950;SDS011;44730;53.158;6.398;2023-02-08T16:06:53;5.85;;;3.30;;
58950;SDS011;44730;53.158;6.398;2023-02-08T16:09:25;5.65;;;3.60;;
58950;SDS011;44730;53.158;6.398;2023-02-08T16:11:57;5.53;;;3.45;;
58950;SDS011;44730;53.158;6.398;2023-02-08T16:14:27;5.65;;;3.30;;
58950;SDS011;44730;53.158;6.398;2023-02-08T16:16:54;4.60;;;3.42;;
58950;SDS011;44730;53.158;6.398;2023-02-08T16:19:28;5.07;;;3.40;;
58950;SDS011;44730;53.158;6.398;2023-02-08T16:21:56;6.28;;;3.55;;
58950;SDS011;44730;53.158;6.398;2023-02-08T16:24:39;4.63;;;3.13;;
58950;SDS011;44730;53.158;6.398;2023-02-08T16:27:05;4.30;;;2.90;;
58950;SDS011;44730;53.158;6.398;2023-02-08T16:29:44;5.22;;;3.22;;
58950;SDS011;44730;53.158;6.398;2023-02-08T16:32:27;4.38;;;3.10;;
58950;SDS011;44730;53.158;6.398;2023-02-08T16:35:09;4.72;;;3.33;;
58950;SDS011;44730;53.158;6.398;2023-02-08T16:37:43;4.90;;;3.22;;
58950;SDS011;44730;53.158;6.398;2023-02-08T16:43:20;5.90;;;3.80;;
58950;SDS011;44730;53.158;6.398;2023-02-08T16:48:41;6.00;;;3.30;;
58950;SDS011;44730;53.158;6.398;2023-02-08T16:51:17;7.05;;;3.20;;
58950;SDS011;44730;53.158;6.398;2023-02-08T16:53:52;6.65;;;3.60;;
58950;SDS011;44730;53.158;6.398;2023-02-08T16:56:26;5.45;;;3.55;;
58950;SDS011;44730;53.158;6.398;2023-02-08T16:58:52;6.15;;;3.60;;
58950;SDS011;44730;53.158;6.398;2023-02-08T17:01:18;6.35;;;3.78;;
58950;SDS011;44730;53.158;6.398;2023-02-08T17:03:46;6.10;;;3.60;;
58950;SDS011;44730;53.158;6.398;2023-02-08T17:06:27;7.25;;;4.97;;
58950;SDS011;44730;53.158;6.398;2023-02-08T17:08:58;8.90;;;5.60;;
58950;SDS011;44730;53.158;6.398;2023-02-08T17:11:24;13.23;;;8.68;;
58950;SDS011;44730;53.158;6.398;2023-02-08T17:13:51;19.95;;;11.75;;
58950;SDS011;44730;53.158;6.398;2023-02-08T17:16:18;17.20;;;11.30;;
58950;SDS011;44730;53.158;6.398;2023-02-08T17:18:46;6.57;;;4.80;;
58950;SDS011;44730;53.158;6.398;2023-02-08T17:21:13;6.43;;;4.50;;
58950;SDS011;44730;53.158;6.398;2023-02-08T17:23:40;6.00;;;4.32;;
58950;SDS011;44730;53.158;6.398;2023-02-08T17:26:40;6.85;;;4.50;;